sensor_id;sensor_type;location;lat;lon;timestamp;P1;durP1;ratioP1;P2;durP2;ratioP2
36257;SDS011;22294;52.044;4.582;2022-11-20T00:02:07;20.80;;;11.77;;
36257;SDS011;22294;52.044;4.582;2022-11-20T00:04:33;18.92;;;12.07;;
36257;SDS011;22294;52.044;4.582;2022-11-20T00:06:58;20.27;;;12.30;;
36257;SDS011;22294;52.044;4.582;2022-11-20T00:09:23;20.17;;;11.82;;
36257;SDS011;22294;52.044;4.582;2022-11-20T00:11:48;21.05;;;12.80;;
36257;SDS011;22294;52.044;4.582;2022-11-20T00:14:14;20.95;;;11.65;;
36257;SDS011;22294;52.044;4.582;2022-11-20T00:16:39;21.60;;;11.77;;
36257;SDS011;22294;52.044;4.582;2022-11-20T00:19:04;20.60;;;12.48;;
36257;SDS011;22294;52.044;4.582;2022-11-20T00:21:30;18.83;;;11.50;;
36257;SDS011;22294;52.044;4.582;2022-11-20T00:23:56;19.75;;;12.00;;
36257;SDS011;22294;52.044;4.582;2022-11-20T00:26:23;22.52;;;12.52;;
36257;SDS011;22294;52.044;4.582;2022-11-20T00:28:51;20.45;;;11.55;;
36257;SDS011;22294;52.044;4.582;2022-11-20T00:31:23;22.58;;;12.02;;
36257;SDS011;22294;52.044;4.582;2022-11-20T00:33:48;27.02;;;13.45;;
36257;SDS011;22294;52.044;4.582;2022-11-20T00:36:21;24.73;;;13.25;;
36257;SDS011;22294;52.044;4.582;2022-11-20T00:38:51;23.02;;;13.18;;
36257;SDS011;22294;52.044;4.582;2022-11-20T00:41:17;22.95;;;13.05;;
36257;SDS011;22294;52.044;4.582;2022-11-20T00:43:43;24.33;;;13.55;;
36257;SDS011;22294;52.044;4.582;2022-11-20T00:46:09;25.88;;;13.23;;
36257;SDS011;22294;52.044;4.582;2022-11-20T00:48:38;24.63;;;13.50;;
36257;SDS011;22294;52.044;4.582;2022-11-20T00:51:04;25.35;;;14.05;;
36257;SDS011;22294;52.044;4.582;2022-11-20T00:53:29;23.75;;;13.60;;
36257;SDS011;22294;52.044;4.582;2022-11-20T00:55:55;23.83;;;12.68;;
36257;SDS011;22294;52.044;4.582;2022-11-20T00:58:23;28.38;;;14.35;;
36257;SDS011;22294;52.044;4.582;2022-11-20T01:00:50;23.48;;;12.98;;
36257;SDS011;22294;52.044;4.582;2022-11-20T01:03:16;26.13;;;13.77;;
36257;SDS011;22294;52.044;4.582;2022-11-20T01:05:42;21.08;;;12.93;;
36257;SDS011;22294;52.044;4.582;2022-11-20T01:08:07;27.35;;;13.35;;
36257;SDS011;22294;52.044;4.582;2022-11-20T01:10:33;21.33;;;12.23;;
36257;SDS011;22294;52.044;4.582;2022-11-20T01:12:58;20.02;;;12.73;;
36257;SDS011;22294;52.044;4.582;2022-11-20T01:15:42;23.20;;;13.18;;
36257;SDS011;22294;52.044;4.582;2022-11-20T01:18:07;23.92;;;12.93;;
36257;SDS011;22294;52.044;4.582;2022-11-20T01:20:36;24.70;;;13.55;;
36257;SDS011;22294;52.044;4.582;2022-11-20T01:23:02;22.45;;;13.27;;
36257;SDS011;22294;52.044;4.582;2022-11-20T01:25:28;22.60;;;13.13;;
36257;SDS011;22294;52.044;4.582;2022-11-20T01:27:53;23.13;;;13.15;;
36257;SDS011;22294;52.044;4.582;2022-11-20T01:30:19;24.67;;;12.35;;
36257;SDS011;22294;52.044;4.582;2022-11-20T01:32:44;24.20;;;12.95;;
36257;SDS011;22294;52.044;4.582;2022-11-20T01:35:11;23.23;;;12.80;;
36257;SDS011;22294;52.044;4.582;2022-11-20T01:37:36;22.05;;;12.63;;
36257;SDS011;22294;52.044;4.582;2022-11-20T01:40:01;23.40;;;12.55;;
36257;SDS011;22294;52.044;4.582;2022-11-20T01:42:27;24.50;;;13.15;;
36257;SDS011;22294;52.044;4.582;2022-11-20T01:48:14;23.67;;;13.50;;
36257;SDS011;22294;52.044;4.582;2022-11-20T01:50:39;22.52;;;13.55;;
36257;SDS011;22294;52.044;4.582;2022-11-20T01:53:08;18.58;;;12.32;;
36257;SDS011;22294;52.044;4.582;2022-11-20T01:58:14;21.10;;;12.73;;
36257;SDS011;22294;52.044;4.582;2022-11-20T02:00:41;21.40;;;13.30;;
36257;SDS011;22294;52.044;4.582;2022-11-20T02:03:08;20.80;;;13.18;;
36257;SDS011;22294;52.044;4.582;2022-11-20T02:08:27;21.77;;;13.13;;
36257;SDS011;22294;52.044;4.582;2022-11-20T02:10:53;21.85;;;12.82;;
36257;SDS011;22294;52.044;4.582;2022-11-20T02:13:19;20.23;;;12.32;;
36257;SDS011;22294;52.044;4.582;2022-11-20T02:16:03;23.17;;;13.13;;
36257;SDS011;22294;52.044;4.582;2022-11-20T02:18:29;22.48;;;13.32;;
36257;SDS011;22294;52.044;4.582;2022-11-20T02:20:58;23.13;;;12.80;;
36257;SDS011;22294;52.044;4.582;2022-11-20T02:26:03;20.70;;;12.10;;
36257;SDS011;22294;52.044;4.582;2022-11-20T02:28:32;21.23;;;11.95;;
36257;SDS011;22294;52.044;4.582;2022-11-20T02:30:58;23.48;;;12.85;;
36257;SDS011;22294;52.044;4.582;2022-11-20T02:33:23;26.08;;;12.85;;
36257;SDS011;22294;52.044;4.582;2022-11-20T02:35:48;21.42;;;12.32;;
36257;SDS011;22294;52.044;4.582;2022-11-20T02:38:14;20.60;;;12.95;;
36257;SDS011;22294;52.044;4.582;2022-11-20T02:40:40;24.42;;;12.77;;
36257;SDS011;22294;52.044;4.582;2022-11-20T02:43:06;26.88;;;13.70;;
36257;SDS011;22294;52.044;4.582;2022-11-20T02:45:32;22.92;;;13.45;;
36257;SDS011;22294;52.044;4.582;2022-11-20T02:47:57;21.88;;;12.57;;
36257;SDS011;22294;52.044;4.582;2022-11-20T02:50:23;22.52;;;12.40;;
36257;SDS011;22294;52.044;4.582;2022-11-20T02:52:48;23.42;;;13.02;;
36257;SDS011;22294;52.044;4.582;2022-11-20T02:55:13;23.67;;;13.23;;
36257;SDS011;22294;52.044;4.582;2022-11-20T02:57:39;22.67;;;12.45;;
36257;SDS011;22294;52.044;4.582;2022-11-20T03:00:04;21.85;;;12.57;;
36257;SDS011;22294;52.044;4.582;2022-11-20T03:02:31;23.30;;;12.98;;
36257;SDS011;22294;52.044;4.582;2022-11-20T03:04:57;21.95;;;13.15;;
36257;SDS011;22294;52.044;4.582;2022-11-20T03:07:23;20.70;;;12.75;;
36257;SDS011;22294;52.044;4.582;2022-11-20T03:09:48;21.80;;;12.65;;
36257;SDS011;22294;52.044;4.582;2022-11-20T03:12:14;20.80;;;12.75;;
36257;SDS011;22294;52.044;4.582;2022-11-20T03:14:39;24.75;;;13.85;;
36257;SDS011;22294;52.044;4.582;2022-11-20T03:17:04;23.63;;;13.02;;
36257;SDS011;22294;52.044;4.582;2022-11-20T03:19:30;20.80;;;12.45;;
36257;SDS011;22294;52.044;4.582;2022-11-20T03:21:55;23.15;;;12.98;;
36257;SDS011;22294;52.044;4.582;2022-11-20T03:24:20;22.52;;;13.63;;
36257;SDS011;22294;52.044;4.582;2022-11-20T03:26:46;21.65;;;12.65;;
36257;SDS011;22294;52.044;4.582;2022-11-20T03:29:11;22.15;;;12.40;;
36257;SDS011;22294;52.044;4.582;2022-11-20T03:31:38;24.63;;;13.27;;
36257;SDS011;22294;52.044;4.582;2022-11-20T03:34:08;20.95;;;12.05;;
36257;SDS011;22294;52.044;4.582;2022-11-20T03:36:34;20.90;;;12.02;;
36257;SDS011;22294;52.044;4.582;2022-11-20T03:39:02;23.15;;;13.20;;
36257;SDS011;22294;52.044;4.582;2022-11-20T03:41:28;21.40;;;12.40;;
36257;SDS011;22294;52.044;4.582;2022-11-20T03:43:59;23.55;;;12.90;;
36257;SDS011;22294;52.044;4.582;2022-11-20T03:46:26;25.13;;;12.82;;
36257;SDS011;22294;52.044;4.582;2022-11-20T03:48:52;20.58;;;12.27;;
36257;SDS011;22294;52.044;4.582;2022-11-20T03:51:19;18.83;;;12.00;;
36257;SDS011;22294;52.044;4.582;2022-11-20T03:53:47;22.17;;;11.90;;
36257;SDS011;22294;52.044;4.582;2022-11-20T03:56:14;20.13;;;11.77;;
36257;SDS011;22294;52.044;4.582;2022-11-20T03:58:42;20.70;;;12.32;;
36257;SDS011;22294;52.044;4.582;2022-11-20T04:03:35;22.70;;;13.38;;
36257;SDS011;22294;52.044;4.582;2022-11-20T04:06:05;20.48;;;12.18;;
36257;SDS011;22294;52.044;4.582;2022-11-20T04:08:33;23.20;;;12.07;;
36257;SDS011;22294;52.044;4.582;2022-11-20T04:11:11;17.77;;;11.82;;
36257;SDS011;22294;52.044;4.582;2022-11-20T04:13:38;19.33;;;11.95;;
36257;SDS011;22294;52.044;4.582;2022-11-20T04:16:06;22.38;;;12.93;;
36257;SDS011;22294;52.044;4.582;2022-11-20T04:18:32;22.85;;;11.93;;
36257;SDS011;22294;52.044;4.582;2022-11-20T04:20:58;21.20;;;12.63;;
36257;SDS011;22294;52.044;4.582;2022-11-20T04:23:24;18.20;;;11.70;;
36257;SDS011;22294;52.044;4.582;2022-11-20T04:25:50;20.40;;;12.38;;
36257;SDS011;22294;52.044;4.582;2022-11-20T04:28:15;21.80;;;12.25;;
36257;SDS011;22294;52.044;4.582;2022-11-20T04:30:40;22.42;;;12.23;;
36257;SDS011;22294;52.044;4.582;2022-11-20T04:33:06;20.10;;;11.88;;
36257;SDS011;22294;52.044;4.582;2022-11-20T04:35:33;19.98;;;12.32;;
36257;SDS011;22294;52.044;4.582;2022-11-20T04:37:59;20.60;;;11.82;;
36257;SDS011;22294;52.044;4.582;2022-11-20T04:40:24;23.92;;;12.60;;
36257;SDS011;22294;52.044;4.582;2022-11-20T04:42:49;26.63;;;13.55;;
36257;SDS011;22294;52.044;4.582;2022-11-20T04:45:15;21.00;;;12.30;;
36257;SDS011;22294;52.044;4.582;2022-11-20T04:47:40;21.33;;;12.02;;
36257;SDS011;22294;52.044;4.582;2022-11-20T04:50:05;24.05;;;12.32;;
36257;SDS011;22294;52.044;4.582;2022-11-20T04:52:31;22.33;;;12.07;;
36257;SDS011;22294;52.044;4.582;2022-11-20T04:54:56;20.38;;;11.75;;
36257;SDS011;22294;52.044;4.582;2022-11-20T04:57:21;23.50;;;12.80;;
36257;SDS011;22294;52.044;4.582;2022-11-20T04:59:47;19.30;;;12.15;;
36257;SDS011;22294;52.044;4.582;2022-11-20T05:02:12;20.25;;;11.80;;
36257;SDS011;22294;52.044;4.582;2022-11-20T05:04:37;23.17;;;11.88;;
36257;SDS011;22294;52.044;4.582;2022-11-20T05:07:03;22.35;;;11.95;;
36257;SDS011;22294;52.044;4.582;2022-11-20T05:09:28;21.83;;;12.70;;
36257;SDS011;22294;52.044;4.582;2022-11-20T05:11:54;21.88;;;12.60;;
36257;SDS011;22294;52.044;4.582;2022-11-20T05:14:19;21.17;;;11.70;;
36257;SDS011;22294;52.044;4.582;2022-11-20T05:16:45;20.50;;;12.50;;
36257;SDS011;22294;52.044;4.582;2022-11-20T05:19:10;20.15;;;12.23;;
36257;SDS011;22294;52.044;4.582;2022-11-20T05:21:35;21.85;;;12.30;;
36257;SDS011;22294;52.044;4.582;2022-11-20T05:24:00;22.25;;;13.18;;
36257;SDS011;22294;52.044;4.582;2022-11-20T05:26:26;21.23;;;12.57;;
36257;SDS011;22294;52.044;4.582;2022-11-20T05:28:51;25.48;;;12.70;;
36257;SDS011;22294;52.044;4.582;2022-11-20T05:31:18;18.63;;;11.63;;
36257;SDS011;22294;52.044;4.582;2022-11-20T05:33:45;19.73;;;12.15;;
36257;SDS011;22294;52.044;4.582;2022-11-20T05:36:11;19.65;;;12.48;;
36257;SDS011;22294;52.044;4.582;2022-11-20T05:38:38;21.33;;;12.98;;
36257;SDS011;22294;52.044;4.582;2022-11-20T05:41:04;22.95;;;12.82;;
36257;SDS011;22294;52.044;4.582;2022-11-20T05:43:43;22.42;;;13.27;;
36257;SDS011;22294;52.044;4.582;2022-11-20T05:46:11;18.02;;;12.25;;
36257;SDS011;22294;52.044;4.582;2022-11-20T05:48:39;20.77;;;12.90;;
36257;SDS011;22294;52.044;4.582;2022-11-20T05:51:06;20.83;;;12.65;;
36257;SDS011;22294;52.044;4.582;2022-11-20T05:53:34;22.00;;;12.98;;
36257;SDS011;22294;52.044;4.582;2022-11-20T05:56:19;21.98;;;13.07;;
36257;SDS011;22294;52.044;4.582;2022-11-20T05:58:45;20.70;;;11.95;;
36257;SDS011;22294;52.044;4.582;2022-11-20T06:01:16;18.63;;;11.85;;
36257;SDS011;22294;52.044;4.582;2022-11-20T06:03:46;22.48;;;12.70;;
36257;SDS011;22294;52.044;4.582;2022-11-20T06:06:12;21.10;;;12.18;;
36257;SDS011;22294;52.044;4.582;2022-11-20T06:08:42;20.80;;;12.90;;
36257;SDS011;22294;52.044;4.582;2022-11-20T06:11:09;20.40;;;12.25;;
36257;SDS011;22294;52.044;4.582;2022-11-20T06:13:36;22.58;;;13.18;;
36257;SDS011;22294;52.044;4.582;2022-11-20T06:16:02;22.48;;;12.95;;
36257;SDS011;22294;52.044;4.582;2022-11-20T06:18:28;23.08;;;13.07;;
36257;SDS011;22294;52.044;4.582;2022-11-20T06:21:01;23.00;;;12.80;;
36257;SDS011;22294;52.044;4.582;2022-11-20T06:23:31;24.92;;;13.85;;
36257;SDS011;22294;52.044;4.582;2022-11-20T06:26:00;23.45;;;13.65;;
36257;SDS011;22294;52.044;4.582;2022-11-20T06:28:27;23.50;;;13.55;;
36257;SDS011;22294;52.044;4.582;2022-11-20T06:30:53;22.13;;;13.48;;
36257;SDS011;22294;52.044;4.582;2022-11-20T06:33:18;25.63;;;13.60;;
36257;SDS011;22294;52.044;4.582;2022-11-20T06:35:43;28.25;;;13.52;;
36257;SDS011;22294;52.044;4.582;2022-11-20T06:38:09;24.52;;;14.10;;
36257;SDS011;22294;52.044;4.582;2022-11-20T06:40:34;21.33;;;12.82;;
36257;SDS011;22294;52.044;4.582;2022-11-20T06:42:59;23.98;;;13.65;;
36257;SDS011;22294;52.044;4.582;2022-11-20T06:45:25;27.25;;;14.13;;
36257;SDS011;22294;52.044;4.582;2022-11-20T06:47:50;24.05;;;13.68;;
36257;SDS011;22294;52.044;4.582;2022-11-20T06:50:15;24.30;;;13.55;;
36257;SDS011;22294;52.044;4.582;2022-11-20T06:52:40;23.20;;;13.57;;
36257;SDS011;22294;52.044;4.582;2022-11-20T06:55:06;22.73;;;13.70;;
36257;SDS011;22294;52.044;4.582;2022-11-20T06:57:31;21.90;;;13.32;;
36257;SDS011;22294;52.044;4.582;2022-11-20T06:59:57;26.77;;;14.10;;
36257;SDS011;22294;52.044;4.582;2022-11-20T07:02:22;23.90;;;13.90;;
36257;SDS011;22294;52.044;4.582;2022-11-20T07:04:47;29.75;;;14.43;;
36257;SDS011;22294;52.044;4.582;2022-11-20T07:07:13;23.77;;;13.48;;
36257;SDS011;22294;52.044;4.582;2022-11-20T07:09:38;22.75;;;13.35;;
36257;SDS011;22294;52.044;4.582;2022-11-20T07:12:03;26.20;;;14.95;;
36257;SDS011;22294;52.044;4.582;2022-11-20T07:14:29;23.13;;;14.20;;
36257;SDS011;22294;52.044;4.582;2022-11-20T07:16:54;26.65;;;15.02;;
36257;SDS011;22294;52.044;4.582;2022-11-20T07:19:19;25.92;;;14.43;;
36257;SDS011;22294;52.044;4.582;2022-11-20T07:21:45;25.08;;;13.98;;
36257;SDS011;22294;52.044;4.582;2022-11-20T07:24:10;25.20;;;13.48;;
36257;SDS011;22294;52.044;4.582;2022-11-20T07:26:35;22.95;;;12.65;;
36257;SDS011;22294;52.044;4.582;2022-11-20T07:29:01;23.80;;;14.07;;
36257;SDS011;22294;52.044;4.582;2022-11-20T07:31:26;24.52;;;13.65;;
36257;SDS011;22294;52.044;4.582;2022-11-20T07:33:51;24.58;;;14.02;;
36257;SDS011;22294;52.044;4.582;2022-11-20T07:36:16;21.63;;;13.27;;
36257;SDS011;22294;52.044;4.582;2022-11-20T07:38:41;23.67;;;13.93;;
36257;SDS011;22294;52.044;4.582;2022-11-20T07:41:07;23.95;;;14.68;;
36257;SDS011;22294;52.044;4.582;2022-11-20T07:43:32;23.45;;;13.85;;
36257;SDS011;22294;52.044;4.582;2022-11-20T07:45:58;20.30;;;13.35;;
36257;SDS011;22294;52.044;4.582;2022-11-20T07:48:24;25.70;;;14.63;;
36257;SDS011;22294;52.044;4.582;2022-11-20T07:50:52;24.25;;;14.85;;
36257;SDS011;22294;52.044;4.582;2022-11-20T07:53:18;26.08;;;15.38;;
36257;SDS011;22294;52.044;4.582;2022-11-20T07:55:45;27.20;;;15.82;;
36257;SDS011;22294;52.044;4.582;2022-11-20T07:58:11;25.90;;;15.45;;
36257;SDS011;22294;52.044;4.582;2022-11-20T08:00:36;27.23;;;15.73;;
36257;SDS011;22294;52.044;4.582;2022-11-20T08:03:05;24.85;;;15.70;;
36257;SDS011;22294;52.044;4.582;2022-11-20T08:05:30;26.38;;;15.95;;
36257;SDS011;22294;52.044;4.582;2022-11-20T08:07:56;29.40;;;16.90;;
36257;SDS011;22294;52.044;4.582;2022-11-20T08:10:21;27.70;;;15.77;;
36257;SDS011;22294;52.044;4.582;2022-11-20T08:12:47;22.38;;;13.77;;
36257;SDS011;22294;52.044;4.582;2022-11-20T08:15:32;24.38;;;14.15;;
36257;SDS011;22294;52.044;4.582;2022-11-20T08:17:59;24.17;;;13.77;;
36257;SDS011;22294;52.044;4.582;2022-11-20T08:20:28;26.48;;;16.48;;
36257;SDS011;22294;52.044;4.582;2022-11-20T08:22:57;27.50;;;15.68;;
36257;SDS011;22294;52.044;4.582;2022-11-20T08:25:24;27.73;;;17.38;;
36257;SDS011;22294;52.044;4.582;2022-11-20T08:27:50;32.35;;;19.50;;
36257;SDS011;22294;52.044;4.582;2022-11-20T08:30:15;28.20;;;17.52;;
36257;SDS011;22294;52.044;4.582;2022-11-20T08:32:40;32.72;;;20.50;;
36257;SDS011;22294;52.044;4.582;2022-11-20T08:35:05;28.45;;;17.15;;
36257;SDS011;22294;52.044;4.582;2022-11-20T08:37:31;27.65;;;17.20;;
36257;SDS011;22294;52.044;4.582;2022-11-20T08:39:56;30.27;;;19.73;;
36257;SDS011;22294;52.044;4.582;2022-11-20T08:42:22;30.33;;;18.88;;
36257;SDS011;22294;52.044;4.582;2022-11-20T08:44:47;35.38;;;20.88;;
36257;SDS011;22294;52.044;4.582;2022-11-20T08:47:12;39.95;;;23.33;;
36257;SDS011;22294;52.044;4.582;2022-11-20T08:49:38;34.38;;;21.60;;
36257;SDS011;22294;52.044;4.582;2022-11-20T08:52:03;37.20;;;20.42;;
36257;SDS011;22294;52.044;4.582;2022-11-20T08:54:28;27.67;;;16.88;;
36257;SDS011;22294;52.044;4.582;2022-11-20T08:56:53;27.20;;;17.23;;
36257;SDS011;22294;52.044;4.582;2022-11-20T08:59:19;35.28;;;20.10;;
36257;SDS011;22294;52.044;4.582;2022-11-20T09:01:44;28.85;;;17.63;;
36257;SDS011;22294;52.044;4.582;2022-11-20T09:04:09;27.17;;;16.05;;
36257;SDS011;22294;52.044;4.582;2022-11-20T09:06:36;32.00;;;17.35;;
36257;SDS011;22294;52.044;4.582;2022-11-20T09:09:01;29.38;;;16.27;;
36257;SDS011;22294;52.044;4.582;2022-11-20T09:11:27;26.10;;;15.50;;
36257;SDS011;22294;52.044;4.582;2022-11-20T09:13:52;26.33;;;16.38;;
36257;SDS011;22294;52.044;4.582;2022-11-20T09:16:18;30.60;;;17.05;;
36257;SDS011;22294;52.044;4.582;2022-11-20T09:18:43;26.90;;;16.30;;
36257;SDS011;22294;52.044;4.582;2022-11-20T09:21:10;28.27;;;16.83;;
36257;SDS011;22294;52.044;4.582;2022-11-20T09:23:36;27.55;;;16.50;;
36257;SDS011;22294;52.044;4.582;2022-11-20T09:26:06;29.25;;;16.60;;
36257;SDS011;22294;52.044;4.582;2022-11-20T09:28:34;28.45;;;16.73;;
36257;SDS011;22294;52.044;4.582;2022-11-20T09:30:59;29.23;;;16.90;;
36257;SDS011;22294;52.044;4.582;2022-11-20T09:33:25;27.75;;;17.20;;
36257;SDS011;22294;52.044;4.582;2022-11-20T09:35:51;30.38;;;17.02;;
36257;SDS011;22294;52.044;4.582;2022-11-20T09:38:16;27.45;;;16.27;;
36257;SDS011;22294;52.044;4.582;2022-11-20T09:46:16;29.75;;;16.92;;
36257;SDS011;22294;52.044;4.582;2022-11-20T09:51:35;27.45;;;16.77;;
36257;SDS011;22294;52.044;4.582;2022-11-20T09:56:36;29.13;;;18.17;;
36257;SDS011;22294;52.044;4.582;2022-11-20T09:59:04;27.95;;;17.67;;
36257;SDS011;22294;52.044;4.582;2022-11-20T10:01:34;28.92;;;17.40;;
36257;SDS011;22294;52.044;4.582;2022-11-20T10:04:04;29.70;;;17.88;;
36257;SDS011;22294;52.044;4.582;2022-11-20T10:07:02;31.70;;;18.48;;
36257;SDS011;22294;52.044;4.582;2022-11-20T10:09:33;34.30;;;18.27;;
36257;SDS011;22294;52.044;4.582;2022-11-20T10:12:16;28.75;;;18.50;;
36257;SDS011;22294;52.044;4.582;2022-11-20T10:17:30;30.13;;;19.20;;
36257;SDS011;22294;52.044;4.582;2022-11-20T10:20:20;31.63;;;19.52;;
36257;SDS011;22294;52.044;4.582;2022-11-20T10:23:00;30.33;;;18.52;;
36257;SDS011;22294;52.044;4.582;2022-11-20T10:25:37;29.80;;;19.75;;
36257;SDS011;22294;52.044;4.582;2022-11-20T10:28:12;30.83;;;18.67;;
36257;SDS011;22294;52.044;4.582;2022-11-20T10:30:50;31.63;;;18.23;;
36257;SDS011;22294;52.044;4.582;2022-11-20T10:33:22;31.60;;;19.50;;
36257;SDS011;22294;52.044;4.582;2022-11-20T10:36:04;34.30;;;18.90;;
36257;SDS011;22294;52.044;4.582;2022-11-20T10:38:34;30.83;;;18.33;;
36257;SDS011;22294;52.044;4.582;2022-11-20T10:41:03;32.90;;;19.15;;
36257;SDS011;22294;52.044;4.582;2022-11-20T10:43:49;32.42;;;18.70;;
36257;SDS011;22294;52.044;4.582;2022-11-20T10:46:36;33.35;;;18.40;;
36257;SDS011;22294;52.044;4.582;2022-11-20T10:49:13;34.28;;;19.55;;
36257;SDS011;22294;52.044;4.582;2022-11-20T10:51:51;36.17;;;20.38;;
36257;SDS011;22294;52.044;4.582;2022-11-20T10:54:40;35.88;;;19.98;;
36257;SDS011;22294;52.044;4.582;2022-11-20T10:57:41;40.70;;;20.90;;
36257;SDS011;22294;52.044;4.582;2022-11-20T11:00:19;36.83;;;20.02;;
36257;SDS011;22294;52.044;4.582;2022-11-20T11:05:20;41.03;;;22.05;;
36257;SDS011;22294;52.044;4.582;2022-11-20T11:07:53;40.28;;;20.70;;
36257;SDS011;22294;52.044;4.582;2022-11-20T11:10:24;38.60;;;21.40;;
36257;SDS011;22294;52.044;4.582;2022-11-20T11:12:56;37.95;;;20.65;;
36257;SDS011;22294;52.044;4.582;2022-11-20T11:15:25;40.28;;;20.63;;
36257;SDS011;22294;52.044;4.582;2022-11-20T11:17:52;41.75;;;22.52;;
36257;SDS011;22294;52.044;4.582;2022-11-20T11:20:20;39.08;;;21.38;;
36257;SDS011;22294;52.044;4.582;2022-11-20T11:22:56;42.08;;;22.08;;
36257;SDS011;22294;52.044;4.582;2022-11-20T11:28:18;41.53;;;21.15;;
36257;SDS011;22294;52.044;4.582;2022-11-20T11:30:47;41.20;;;21.92;;
36257;SDS011;22294;52.044;4.582;2022-11-20T11:35:49;37.05;;;22.05;;
36257;SDS011;22294;52.044;4.582;2022-11-20T11:38:19;40.25;;;21.55;;
36257;SDS011;22294;52.044;4.582;2022-11-20T11:40:55;39.60;;;21.75;;
36257;SDS011;22294;52.044;4.582;2022-11-20T11:43:23;39.80;;;21.02;;
36257;SDS011;22294;52.044;4.582;2022-11-20T11:46:25;38.20;;;21.58;;
36257;SDS011;22294;52.044;4.582;2022-11-20T11:49:01;38.03;;;22.15;;
36257;SDS011;22294;52.044;4.582;2022-11-20T11:51:41;41.00;;;20.98;;
36257;SDS011;22294;52.044;4.582;2022-11-20T11:54:24;34.65;;;20.67;;
36257;SDS011;22294;52.044;4.582;2022-11-20T11:56:58;37.28;;;22.23;;
36257;SDS011;22294;52.044;4.582;2022-11-20T12:02:31;36.38;;;21.23;;
36257;SDS011;22294;52.044;4.582;2022-11-20T12:07:56;41.35;;;21.48;;
36257;SDS011;22294;52.044;4.582;2022-11-20T12:15:48;43.95;;;23.17;;
36257;SDS011;22294;52.044;4.582;2022-11-20T12:18:16;44.40;;;22.63;;
36257;SDS011;22294;52.044;4.582;2022-11-20T12:20:45;44.28;;;24.33;;
36257;SDS011;22294;52.044;4.582;2022-11-20T12:23:28;37.67;;;20.55;;
36257;SDS011;22294;52.044;4.582;2022-11-20T12:26:07;47.67;;;23.30;;
36257;SDS011;22294;52.044;4.582;2022-11-20T12:28:46;43.40;;;23.05;;
36257;SDS011;22294;52.044;4.582;2022-11-20T12:31:22;41.88;;;21.20;;
36257;SDS011;22294;52.044;4.582;2022-11-20T12:37:19;46.50;;;25.48;;
36257;SDS011;22294;52.044;4.582;2022-11-20T12:40:54;47.25;;;24.52;;
36257;SDS011;22294;52.044;4.582;2022-11-20T12:43:42;48.30;;;25.73;;
36257;SDS011;22294;52.044;4.582;2022-11-20T12:51:58;52.43;;;26.97;;
36257;SDS011;22294;52.044;4.582;2022-11-20T12:54:57;51.72;;;26.30;;
36257;SDS011;22294;52.044;4.582;2022-11-20T12:57:39;51.20;;;24.55;;
36257;SDS011;22294;52.044;4.582;2022-11-20T13:00:10;52.28;;;25.88;;
36257;SDS011;22294;52.044;4.582;2022-11-20T13:05:48;57.38;;;25.67;;
36257;SDS011;22294;52.044;4.582;2022-11-20T13:08:24;60.42;;;26.77;;
36257;SDS011;22294;52.044;4.582;2022-11-20T13:16:33;61.87;;;26.73;;
36257;SDS011;22294;52.044;4.582;2022-11-20T13:19:02;57.58;;;26.27;;
36257;SDS011;22294;52.044;4.582;2022-11-20T13:21:36;67.65;;;29.25;;
36257;SDS011;22294;52.044;4.582;2022-11-20T13:24:04;72.18;;;29.58;;
36257;SDS011;22294;52.044;4.582;2022-11-20T13:26:32;74.65;;;30.92;;
36257;SDS011;22294;52.044;4.582;2022-11-20T13:28:59;56.65;;;27.45;;
36257;SDS011;22294;52.044;4.582;2022-11-20T13:31:33;65.38;;;27.92;;
36257;SDS011;22294;52.044;4.582;2022-11-20T13:34:01;53.95;;;26.75;;
36257;SDS011;22294;52.044;4.582;2022-11-20T13:36:30;58.35;;;27.38;;
36257;SDS011;22294;52.044;4.582;2022-11-20T13:38:57;60.22;;;28.90;;
36257;SDS011;22294;52.044;4.582;2022-11-20T13:41:31;63.65;;;26.55;;
36257;SDS011;22294;52.044;4.582;2022-11-20T13:44:09;55.90;;;26.73;;
36257;SDS011;22294;52.044;4.582;2022-11-20T13:46:47;63.05;;;29.50;;
36257;SDS011;22294;52.044;4.582;2022-11-20T13:49:32;67.38;;;31.15;;
36257;SDS011;22294;52.044;4.582;2022-11-20T13:52:04;66.70;;;29.65;;
36257;SDS011;22294;52.044;4.582;2022-11-20T13:57:51;67.00;;;29.15;;
36257;SDS011;22294;52.044;4.582;2022-11-20T14:00:25;68.70;;;28.63;;
36257;SDS011;22294;52.044;4.582;2022-11-20T14:05:32;62.22;;;28.67;;
36257;SDS011;22294;52.044;4.582;2022-11-20T14:08:02;64.93;;;28.02;;
36257;SDS011;22294;52.044;4.582;2022-11-20T14:10:30;64.60;;;31.85;;
36257;SDS011;22294;52.044;4.582;2022-11-20T14:12:55;67.80;;;31.17;;
36257;SDS011;22294;52.044;4.582;2022-11-20T14:15:24;67.88;;;30.35;;
36257;SDS011;22294;52.044;4.582;2022-11-20T14:17:53;69.35;;;30.85;;
36257;SDS011;22294;52.044;4.582;2022-11-20T14:20:18;72.10;;;31.88;;
36257;SDS011;22294;52.044;4.582;2022-11-20T14:22:51;68.63;;;31.13;;
36257;SDS011;22294;52.044;4.582;2022-11-20T14:27:43;61.63;;;28.70;;
36257;SDS011;22294;52.044;4.582;2022-11-20T14:30:14;66.47;;;28.60;;
36257;SDS011;22294;52.044;4.582;2022-11-20T14:32:42;65.97;;;29.33;;
36257;SDS011;22294;52.044;4.582;2022-11-20T14:35:10;66.75;;;31.02;;
36257;SDS011;22294;52.044;4.582;2022-11-20T14:37:43;68.95;;;33.58;;
36257;SDS011;22294;52.044;4.582;2022-11-20T14:42:47;67.88;;;30.95;;
36257;SDS011;22294;52.044;4.582;2022-11-20T14:45:12;69.38;;;31.05;;
36257;SDS011;22294;52.044;4.582;2022-11-20T14:47:38;69.60;;;31.15;;
36257;SDS011;22294;52.044;4.582;2022-11-20T14:50:07;72.35;;;33.10;;
36257;SDS011;22294;52.044;4.582;2022-11-20T14:52:54;66.70;;;29.65;;
36257;SDS011;22294;52.044;4.582;2022-11-20T14:55:24;66.78;;;30.95;;
36257;SDS011;22294;52.044;4.582;2022-11-20T14:57:55;69.22;;;30.95;;
36257;SDS011;22294;52.044;4.582;2022-11-20T15:00:28;75.22;;;34.00;;
36257;SDS011;22294;52.044;4.582;2022-11-20T15:02:55;73.75;;;33.45;;
36257;SDS011;22294;52.044;4.582;2022-11-20T15:05:22;75.03;;;33.72;;
36257;SDS011;22294;52.044;4.582;2022-11-20T15:07:51;69.78;;;31.88;;
36257;SDS011;22294;52.044;4.582;2022-11-20T15:10:37;71.47;;;32.13;;
36257;SDS011;22294;52.044;4.582;2022-11-20T15:13:05;71.60;;;32.78;;
36257;SDS011;22294;52.044;4.582;2022-11-20T15:15:41;67.95;;;32.33;;
36257;SDS011;22294;52.044;4.582;2022-11-20T15:18:13;65.63;;;31.20;;
36257;SDS011;22294;52.044;4.582;2022-11-20T15:20:40;65.13;;;31.48;;
36257;SDS011;22294;52.044;4.582;2022-11-20T15:23:09;64.45;;;31.90;;
36257;SDS011;22294;52.044;4.582;2022-11-20T15:25:37;68.38;;;32.58;;
36257;SDS011;22294;52.044;4.582;2022-11-20T15:28:04;66.75;;;30.90;;
36257;SDS011;22294;52.044;4.582;2022-11-20T15:30:40;65.32;;;31.13;;
36257;SDS011;22294;52.044;4.582;2022-11-20T15:33:07;70.32;;;30.45;;
36257;SDS011;22294;52.044;4.582;2022-11-20T15:35:34;60.70;;;29.77;;
36257;SDS011;22294;52.044;4.582;2022-11-20T15:37:59;66.32;;;30.67;;
36257;SDS011;22294;52.044;4.582;2022-11-20T15:40:24;66.85;;;30.50;;
36257;SDS011;22294;52.044;4.582;2022-11-20T15:42:49;65.78;;;30.60;;
36257;SDS011;22294;52.044;4.582;2022-11-20T15:45:34;61.75;;;28.73;;
36257;SDS011;22294;52.044;4.582;2022-11-20T15:48:04;64.15;;;28.85;;